sensor_id;sensor_type;location;lat;lon;timestamp;P1;durP1;ratioP1;P2;durP2;ratioP2
81320;SDS011;70785;52.570;5.638;2023-10-31T00:01:52;2.67;;;0.82;;
81320;SDS011;70785;52.570;5.638;2023-10-31T00:04:19;5.35;;;0.90;;
81320;SDS011;70785;52.570;5.638;2023-10-31T00:06:45;6.28;;;1.40;;
81320;SDS011;70785;52.570;5.638;2023-10-31T00:09:12;5.40;;;2.40;;
81320;SDS011;70785;52.570;5.638;2023-10-31T00:11:38;6.80;;;1.95;;
81320;SDS011;70785;52.570;5.638;2023-10-31T00:14:06;6.57;;;1.38;;
81320;SDS011;70785;52.570;5.638;2023-10-31T00:16:34;5.43;;;1.08;;
81320;SDS011;70785;52.570;5.638;2023-10-31T00:19:00;3.03;;;1.10;;
81320;SDS011;70785;52.570;5.638;2023-10-31T00:21:26;4.03;;;0.80;;
81320;SDS011;70785;52.570;5.638;2023-10-31T00:23:52;2.75;;;0.40;;
81320;SDS011;70785;52.570;5.638;2023-10-31T00:26:18;2.10;;;0.70;;
81320;SDS011;70785;52.570;5.638;2023-10-31T00:28:50;6.45;;;0.60;;
81320;SDS011;70785;52.570;5.638;2023-10-31T00:31:17;3.35;;;0.43;;
81320;SDS011;70785;52.570;5.638;2023-10-31T00:33:43;3.30;;;0.90;;
81320;SDS011;70785;52.570;5.638;2023-10-31T00:36:09;6.43;;;0.95;;
81320;SDS011;70785;52.570;5.638;2023-10-31T00:38:35;3.90;;;0.70;;
81320;SDS011;70785;52.570;5.638;2023-10-31T00:41:01;3.08;;;0.70;;
81320;SDS011;70785;52.570;5.638;2023-10-31T00:43:27;5.43;;;1.00;;
81320;SDS011;70785;52.570;5.638;2023-10-31T00:45:53;6.78;;;1.13;;
81320;SDS011;70785;52.570;5.638;2023-10-31T00:48:19;3.90;;;1.55;;
81320;SDS011;70785;52.570;5.638;2023-10-31T00:50:46;5.97;;;1.70;;
81320;SDS011;70785;52.570;5.638;2023-10-31T00:53:12;5.22;;;1.20;;
81320;SDS011;70785;52.570;5.638;2023-10-31T00:55:40;7.25;;;1.90;;
81320;SDS011;70785;52.570;5.638;2023-10-31T00:58:06;4.45;;;1.20;;
81320;SDS011;70785;52.570;5.638;2023-10-31T01:00:33;5.22;;;1.58;;
81320;SDS011;70785;52.570;5.638;2023-10-31T01:02:59;4.68;;;1.35;;
81320;SDS011;70785;52.570;5.638;2023-10-31T01:05:26;5.07;;;1.30;;
81320;SDS011;70785;52.570;5.638;2023-10-31T01:07:55;5.40;;;2.13;;
81320;SDS011;70785;52.570;5.638;2023-10-31T01:10:21;6.60;;;1.50;;
81320;SDS011;70785;52.570;5.638;2023-10-31T01:12:48;3.80;;;1.20;;
81320;SDS011;70785;52.570;5.638;2023-10-31T01:15:14;7.25;;;1.65;;
81320;SDS011;70785;52.570;5.638;2023-10-31T01:17:40;7.40;;;2.20;;
81320;SDS011;70785;52.570;5.638;2023-10-31T01:20:06;4.45;;;1.60;;
81320;SDS011;70785;52.570;5.638;2023-10-31T01:22:33;7.50;;;2.40;;
81320;SDS011;70785;52.570;5.638;2023-10-31T01:24:59;7.85;;;1.95;;
81320;SDS011;70785;52.570;5.638;2023-10-31T01:27:25;5.85;;;3.22;;
81320;SDS011;70785;52.570;5.638;2023-10-31T01:29:51;10.98;;;3.20;;
81320;SDS011;70785;52.570;5.638;2023-10-31T01:32:17;7.32;;;3.10;;
81320;SDS011;70785;52.570;5.638;2023-10-31T01:34:47;6.05;;;2.88;;
81320;SDS011;70785;52.570;5.638;2023-10-31T01:37:13;5.40;;;2.47;;
81320;SDS011;70785;52.570;5.638;2023-10-31T01:39:40;6.53;;;2.50;;
81320;SDS011;70785;52.570;5.638;2023-10-31T01:42:06;8.30;;;2.03;;
81320;SDS011;70785;52.570;5.638;2023-10-31T01:44:32;5.97;;;1.83;;
81320;SDS011;70785;52.570;5.638;2023-10-31T01:46:58;2.50;;;1.67;;
81320;SDS011;70785;52.570;5.638;2023-10-31T01:49:24;5.32;;;1.60;;
81320;SDS011;70785;52.570;5.638;2023-10-31T01:51:50;6.03;;;1.45;;
81320;SDS011;70785;52.570;5.638;2023-10-31T01:54:17;3.65;;;1.60;;
81320;SDS011;70785;52.570;5.638;2023-10-31T01:56:44;4.72;;;1.45;;
81320;SDS011;70785;52.570;5.638;2023-10-31T01:59:11;3.95;;;1.25;;
81320;SDS011;70785;52.570;5.638;2023-10-31T02:01:40;3.15;;;1.42;;
81320;SDS011;70785;52.570;5.638;2023-10-31T02:04:07;7.22;;;0.68;;
81320;SDS011;70785;52.570;5.638;2023-10-31T02:06:33;3.30;;;1.02;;
81320;SDS011;70785;52.570;5.638;2023-10-31T02:08:59;3.97;;;0.95;;
81320;SDS011;70785;52.570;5.638;2023-10-31T02:11:26;4.18;;;2.10;;
81320;SDS011;70785;52.570;5.638;2023-10-31T02:13:53;4.10;;;1.25;;
81320;SDS011;70785;52.570;5.638;2023-10-31T02:16:19;2.83;;;0.50;;
81320;SDS011;70785;52.570;5.638;2023-10-31T02:18:46;5.03;;;0.90;;
81320;SDS011;70785;52.570;5.638;2023-10-31T02:21:12;5.72;;;1.30;;
81320;SDS011;70785;52.570;5.638;2023-10-31T02:23:38;2.53;;;0.80;;
81320;SDS011;70785;52.570;5.638;2023-10-31T02:26:04;2.63;;;0.70;;
81320;SDS011;70785;52.570;5.638;2023-10-31T02:28:31;5.80;;;1.50;;
81320;SDS011;70785;52.570;5.638;2023-10-31T02:30:57;5.85;;;1.63;;
81320;SDS011;70785;52.570;5.638;2023-10-31T02:33:25;5.80;;;1.83;;
81320;SDS011;70785;52.570;5.638;2023-10-31T02:35:51;3.00;;;1.65;;
81320;SDS011;70785;52.570;5.638;2023-10-31T02:38:17;4.22;;;2.55;;
81320;SDS011;70785;52.570;5.638;2023-10-31T02:40:43;3.67;;;1.83;;
81320;SDS011;70785;52.570;5.638;2023-10-31T02:43:09;6.25;;;2.72;;
81320;SDS011;70785;52.570;5.638;2023-10-31T02:45:35;5.63;;;2.25;;
81320;SDS011;70785;52.570;5.638;2023-10-31T02:48:01;8.07;;;2.63;;
81320;SDS011;70785;52.570;5.638;2023-10-31T02:50:27;10.98;;;3.35;;
81320;SDS011;70785;52.570;5.638;2023-10-31T02:52:53;9.00;;;4.25;;
81320;SDS011;70785;52.570;5.638;2023-10-31T02:55:20;8.68;;;4.60;;
81320;SDS011;70785;52.570;5.638;2023-10-31T02:57:46;11.88;;;3.92;;
81320;SDS011;70785;52.570;5.638;2023-10-31T03:00:12;10.90;;;4.50;;
81320;SDS011;70785;52.570;5.638;2023-10-31T03:02:38;11.00;;;4.63;;
81320;SDS011;70785;52.570;5.638;2023-10-31T03:05:05;8.27;;;4.50;;
81320;SDS011;70785;52.570;5.638;2023-10-31T03:07:31;15.10;;;4.30;;
81320;SDS011;70785;52.570;5.638;2023-10-31T03:09:57;12.13;;;4.55;;
81320;SDS011;70785;52.570;5.638;2023-10-31T03:12:23;9.02;;;4.18;;
81320;SDS011;70785;52.570;5.638;2023-10-31T03:14:49;18.50;;;6.05;;
81320;SDS011;70785;52.570;5.638;2023-10-31T03:17:16;12.73;;;4.65;;
81320;SDS011;70785;52.570;5.638;2023-10-31T03:19:42;12.00;;;4.50;;
81320;SDS011;70785;52.570;5.638;2023-10-31T03:22:08;14.68;;;4.50;;
81320;SDS011;70785;52.570;5.638;2023-10-31T03:24:34;10.45;;;4.85;;
81320;SDS011;70785;52.570;5.638;2023-10-31T03:27:01;10.70;;;5.70;;
81320;SDS011;70785;52.570;5.638;2023-10-31T03:29:27;11.38;;;4.60;;
81320;SDS011;70785;52.570;5.638;2023-10-31T03:31:53;10.65;;;3.88;;
81320;SDS011;70785;52.570;5.638;2023-10-31T03:34:19;12.25;;;6.38;;
81320;SDS011;70785;52.570;5.638;2023-10-31T03:36:45;11.10;;;4.25;;
81320;SDS011;70785;52.570;5.638;2023-10-31T03:39:11;10.68;;;3.95;;
81320;SDS011;70785;52.570;5.638;2023-10-31T03:41:37;6.13;;;2.28;;
81320;SDS011;70785;52.570;5.638;2023-10-31T03:44:04;4.78;;;1.52;;
81320;SDS011;70785;52.570;5.638;2023-10-31T03:46:30;5.38;;;1.40;;
81320;SDS011;70785;52.570;5.638;2023-10-31T03:48:56;1.83;;;0.90;;
81320;SDS011;70785;52.570;5.638;2023-10-31T03:51:22;2.65;;;1.10;;
81320;SDS011;70785;52.570;5.638;2023-10-31T03:53:48;1.83;;;0.80;;
81320;SDS011;70785;52.570;5.638;2023-10-31T03:56:16;3.40;;;0.57;;
81320;SDS011;70785;52.570;5.638;2023-10-31T03:58:42;3.92;;;0.70;;
81320;SDS011;70785;52.570;5.638;2023-10-31T04:01:08;2.92;;;0.55;;
81320;SDS011;70785;52.570;5.638;2023-10-31T04:03:35;3.65;;;1.05;;
81320;SDS011;70785;52.570;5.638;2023-10-31T04:06:01;2.72;;;0.52;;
81320;SDS011;70785;52.570;5.638;2023-10-31T04:08:27;1.38;;;0.30;;
81320;SDS011;70785;52.570;5.638;2023-10-31T04:10:53;1.50;;;0.30;;
81320;SDS011;70785;52.570;5.638;2023-10-31T04:13:19;1.58;;;0.43;;
81320;SDS011;70785;52.570;5.638;2023-10-31T04:15:45;1.45;;;0.35;;
81320;SDS011;70785;52.570;5.638;2023-10-31T04:18:12;1.85;;;0.80;;
81320;SDS011;70785;52.570;5.638;2023-10-31T04:20:38;0.85;;;0.15;;
81320;SDS011;70785;52.570;5.638;2023-10-31T04:23:04;1.88;;;0.40;;
81320;SDS011;70785;52.570;5.638;2023-10-31T04:25:31;2.90;;;1.00;;
81320;SDS011;70785;52.570;5.638;2023-10-31T04:27:57;4.78;;;0.57;;
81320;SDS011;70785;52.570;5.638;2023-10-31T04:30:26;1.40;;;0.43;;
81320;SDS011;70785;52.570;5.638;2023-10-31T04:32:53;2.35;;;0.57;;
81320;SDS011;70785;52.570;5.638;2023-10-31T04:35:19;3.25;;;0.68;;
81320;SDS011;70785;52.570;5.638;2023-10-31T04:37:45;2.92;;;0.50;;
81320;SDS011;70785;52.570;5.638;2023-10-31T04:40:11;2.92;;;0.47;;
81320;SDS011;70785;52.570;5.638;2023-10-31T04:42:38;3.03;;;0.50;;
81320;SDS011;70785;52.570;5.638;2023-10-31T04:45:08;1.27;;;0.22;;
81320;SDS011;70785;52.570;5.638;2023-10-31T04:47:34;2.10;;;0.43;;
81320;SDS011;70785;52.570;5.638;2023-10-31T04:50:00;2.35;;;0.35;;
81320;SDS011;70785;52.570;5.638;2023-10-31T04:52:26;0.77;;;0.20;;
81320;SDS011;70785;52.570;5.638;2023-10-31T04:54:52;1.33;;;0.25;;
81320;SDS011;70785;52.570;5.638;2023-10-31T04:57:19;2.20;;;0.55;;
81320;SDS011;70785;52.570;5.638;2023-10-31T04:59:45;4.13;;;0.57;;
81320;SDS011;70785;52.570;5.638;2023-10-31T05:02:11;1.02;;;0.10;;
81320;SDS011;70785;52.570;5.638;2023-10-31T05:04:38;3.92;;;1.17;;
81320;SDS011;70785;52.570;5.638;2023-10-31T05:07:05;2.15;;;0.30;;
81320;SDS011;70785;52.570;5.638;2023-10-31T05:09:31;3.10;;;0.30;;
81320;SDS011;70785;52.570;5.638;2023-10-31T05:11:57;3.38;;;0.57;;
81320;SDS011;70785;52.570;5.638;2023-10-31T05:14:23;1.75;;;0.40;;
81320;SDS011;70785;52.570;5.638;2023-10-31T05:16:49;1.63;;;0.25;;
81320;SDS011;70785;52.570;5.638;2023-10-31T05:19:15;1.08;;;0.20;;
81320;SDS011;70785;52.570;5.638;2023-10-31T05:21:41;0.20;;;0.10;;
81320;SDS011;70785;52.570;5.638;2023-10-31T05:24:08;2.08;;;0.60;;
81320;SDS011;70785;52.570;5.638;2023-10-31T05:26:34;2.25;;;0.28;;
81320;SDS011;70785;52.570;5.638;2023-10-31T05:29:00;0.45;;;0.20;;
81320;SDS011;70785;52.570;5.638;2023-10-31T05:31:26;5.03;;;0.40;;
81320;SDS011;70785;52.570;5.638;2023-10-31T05:33:52;3.08;;;0.75;;
81320;SDS011;70785;52.570;5.638;2023-10-31T05:36:19;1.73;;;0.32;;
81320;SDS011;70785;52.570;5.638;2023-10-31T05:38:46;2.42;;;0.13;;
81320;SDS011;70785;52.570;5.638;2023-10-31T05:41:13;2.80;;;0.22;;
81320;SDS011;70785;52.570;5.638;2023-10-31T05:43:39;2.45;;;0.30;;
81320;SDS011;70785;52.570;5.638;2023-10-31T05:46:06;2.80;;;0.30;;
81320;SDS011;70785;52.570;5.638;2023-10-31T05:48:37;2.70;;;0.32;;
81320;SDS011;70785;52.570;5.638;2023-10-31T05:51:04;1.65;;;0.60;;
81320;SDS011;70785;52.570;5.638;2023-10-31T05:53:37;0.73;;;0.50;;
81320;SDS011;70785;52.570;5.638;2023-10-31T05:56:04;2.92;;;0.75;;
81320;SDS011;70785;52.570;5.638;2023-10-31T05:58:32;1.52;;;0.47;;
81320;SDS011;70785;52.570;5.638;2023-10-31T06:00:59;2.28;;;0.40;;
81320;SDS011;70785;52.570;5.638;2023-10-31T06:03:25;2.88;;;0.50;;
81320;SDS011;70785;52.570;5.638;2023-10-31T06:05:51;1.40;;;0.30;;
81320;SDS011;70785;52.570;5.638;2023-10-31T06:08:17;2.20;;;0.52;;
81320;SDS011;70785;52.570;5.638;2023-10-31T06:10:43;0.90;;;0.30;;
81320;SDS011;70785;52.570;5.638;2023-10-31T06:13:09;1.13;;;1.02;;
81320;SDS011;70785;52.570;5.638;2023-10-31T06:15:35;4.28;;;0.65;;
81320;SDS011;70785;52.570;5.638;2023-10-31T06:18:01;2.25;;;0.50;;
81320;SDS011;70785;52.570;5.638;2023-10-31T06:20:28;1.75;;;0.30;;
81320;SDS011;70785;52.570;5.638;2023-10-31T06:22:54;1.88;;;0.57;;
81320;SDS011;70785;52.570;5.638;2023-10-31T06:25:20;2.40;;;0.82;;
81320;SDS011;70785;52.570;5.638;2023-10-31T06:27:46;2.38;;;0.50;;
81320;SDS011;70785;52.570;5.638;2023-10-31T06:30:13;2.10;;;0.68;;
81320;SDS011;70785;52.570;5.638;2023-10-31T06:32:39;1.10;;;0.35;;
81320;SDS011;70785;52.570;5.638;2023-10-31T06:35:08;0.73;;;0.20;;
81320;SDS011;70785;52.570;5.638;2023-10-31T06:37:34;2.63;;;0.63;;
81320;SDS011;70785;52.570;5.638;2023-10-31T06:40:01;3.15;;;0.25;;
81320;SDS011;70785;52.570;5.638;2023-10-31T06:42:29;0.93;;;0.60;;
81320;SDS011;70785;52.570;5.638;2023-10-31T06:44:56;4.95;;;0.95;;
81320;SDS011;70785;52.570;5.638;2023-10-31T06:47:22;2.25;;;0.40;;
81320;SDS011;70785;52.570;5.638;2023-10-31T06:49:48;2.28;;;0.47;;
81320;SDS011;70785;52.570;5.638;2023-10-31T06:52:14;3.92;;;0.60;;
81320;SDS011;70785;52.570;5.638;2023-10-31T06:54:40;2.03;;;0.85;;
81320;SDS011;70785;52.570;5.638;2023-10-31T06:57:06;2.03;;;0.98;;
81320;SDS011;70785;52.570;5.638;2023-10-31T06:59:33;5.45;;;0.90;;
81320;SDS011;70785;52.570;5.638;2023-10-31T07:02:00;3.33;;;0.77;;
81320;SDS011;70785;52.570;5.638;2023-10-31T07:04:26;3.40;;;1.17;;
81320;SDS011;70785;52.570;5.638;2023-10-31T07:06:52;2.97;;;0.85;;
81320;SDS011;70785;52.570;5.638;2023-10-31T07:09:25;1.70;;;0.70;;
81320;SDS011;70785;52.570;5.638;2023-10-31T07:11:52;4.32;;;0.73;;
81320;SDS011;70785;52.570;5.638;2023-10-31T07:14:19;3.92;;;0.80;;
81320;SDS011;70785;52.570;5.638;2023-10-31T07:16:45;2.38;;;1.05;;
81320;SDS011;70785;52.570;5.638;2023-10-31T07:19:11;3.95;;;0.85;;
81320;SDS011;70785;52.570;5.638;2023-10-31T07:21:37;1.52;;;0.63;;
81320;SDS011;70785;52.570;5.638;2023-10-31T07:24:03;7.85;;;1.20;;
81320;SDS011;70785;52.570;5.638;2023-10-31T07:26:30;1.70;;;0.70;;
81320;SDS011;70785;52.570;5.638;2023-10-31T07:28:56;3.75;;;1.30;;
81320;SDS011;70785;52.570;5.638;2023-10-31T07:31:22;2.30;;;0.80;;
81320;SDS011;70785;52.570;5.638;2023-10-31T07:33:48;2.35;;;1.02;;
81320;SDS011;70785;52.570;5.638;2023-10-31T07:36:14;5.47;;;0.85;;
81320;SDS011;70785;52.570;5.638;2023-10-31T07:38:40;3.25;;;1.08;;
81320;SDS011;70785;52.570;5.638;2023-10-31T07:41:06;3.30;;;1.02;;
81320;SDS011;70785;52.570;5.638;2023-10-31T07:43:32;4.32;;;1.27;;
81320;SDS011;70785;52.570;5.638;2023-10-31T07:45:59;3.30;;;1.10;;
81320;SDS011;70785;52.570;5.638;2023-10-31T07:48:25;3.92;;;1.67;;
81320;SDS011;70785;52.570;5.638;2023-10-31T07:50:51;3.95;;;1.38;;
81320;SDS011;70785;52.570;5.638;2023-10-31T07:53:17;4.43;;;1.20;;
81320;SDS011;70785;52.570;5.638;2023-10-31T07:55:43;7.40;;;1.35;;
81320;SDS011;70785;52.570;5.638;2023-10-31T07:58:09;4.63;;;1.13;;
81320;SDS011;70785;52.570;5.638;2023-10-31T08:00:36;2.65;;;0.85;;
81320;SDS011;70785;52.570;5.638;2023-10-31T08:03:04;3.42;;;0.70;;
81320;SDS011;70785;52.570;5.638;2023-10-31T08:05:30;1.55;;;0.90;;
81320;SDS011;70785;52.570;5.638;2023-10-31T08:07:56;3.88;;;1.40;;
81320;SDS011;70785;52.570;5.638;2023-10-31T08:10:23;4.50;;;0.80;;
81320;SDS011;70785;52.570;5.638;2023-10-31T08:12:49;2.42;;;0.73;;
81320;SDS011;70785;52.570;5.638;2023-10-31T08:15:15;0.90;;;0.47;;
81320;SDS011;70785;52.570;5.638;2023-10-31T08:17:42;5.13;;;0.98;;
81320;SDS011;70785;52.570;5.638;2023-10-31T08:20:08;3.63;;;1.30;;
81320;SDS011;70785;52.570;5.638;2023-10-31T08:22:36;3.50;;;0.70;;
81320;SDS011;70785;52.570;5.638;2023-10-31T08:25:03;4.53;;;0.60;;
81320;SDS011;70785;52.570;5.638;2023-10-31T08:27:29;2.15;;;0.50;;
81320;SDS011;70785;52.570;5.638;2023-10-31T08:29:55;2.85;;;0.60;;
81320;SDS011;70785;52.570;5.638;2023-10-31T08:32:21;1.38;;;1.02;;
81320;SDS011;70785;52.570;5.638;2023-10-31T08:34:50;1.92;;;0.68;;
81320;SDS011;70785;52.570;5.638;2023-10-31T08:37:16;2.63;;;0.70;;
81320;SDS011;70785;52.570;5.638;2023-10-31T08:39:42;3.45;;;0.60;;
81320;SDS011;70785;52.570;5.638;2023-10-31T08:42:09;1.98;;;0.77;;
81320;SDS011;70785;52.570;5.638;2023-10-31T08:44:35;1.67;;;0.30;;
81320;SDS011;70785;52.570;5.638;2023-10-31T08:47:03;2.58;;;0.40;;
81320;SDS011;70785;52.570;5.638;2023-10-31T08:49:29;2.13;;;0.55;;
81320;SDS011;70785;52.570;5.638;2023-10-31T08:51:55;2.78;;;0.43;;
81320;SDS011;70785;52.570;5.638;2023-10-31T08:54:22;2.47;;;0.88;;
81320;SDS011;70785;52.570;5.638;2023-10-31T08:56:48;5.82;;;0.93;;
81320;SDS011;70785;52.570;5.638;2023-10-31T08:59:14;3.33;;;1.02;;
81320;SDS011;70785;52.570;5.638;2023-10-31T09:01:40;5.93;;;1.17;;
81320;SDS011;70785;52.570;5.638;2023-10-31T09:04:06;3.95;;;0.90;;
81320;SDS011;70785;52.570;5.638;2023-10-31T09:06:32;2.13;;;1.00;;
81320;SDS011;70785;52.570;5.638;2023-10-31T09:08:58;3.17;;;0.52;;
81320;SDS011;70785;52.570;5.638;2023-10-31T09:11:24;1.95;;;0.80;;
81320;SDS011;70785;52.570;5.638;2023-10-31T09:13:50;2.17;;;0.88;;
81320;SDS011;70785;52.570;5.638;2023-10-31T09:16:16;4.00;;;0.73;;
81320;SDS011;70785;52.570;5.638;2023-10-31T09:18:42;1.67;;;0.50;;
81320;SDS011;70785;52.570;5.638;2023-10-31T09:21:09;1.95;;;0.85;;
81320;SDS011;70785;52.570;5.638;2023-10-31T09:23:35;1.98;;;0.63;;
81320;SDS011;70785;52.570;5.638;2023-10-31T09:26:01;2.30;;;0.30;;
81320;SDS011;70785;52.570;5.638;2023-10-31T09:28:28;1.70;;;0.63;;
81320;SDS011;70785;52.570;5.638;2023-10-31T09:30:54;4.82;;;0.68;;
81320;SDS011;70785;52.570;5.638;2023-10-31T09:33:21;2.88;;;0.80;;
81320;SDS011;70785;52.570;5.638;2023-10-31T09:35:47;4.22;;;0.88;;
81320;SDS011;70785;52.570;5.638;2023-10-31T09:38:13;3.50;;;0.52;;
81320;SDS011;70785;52.570;5.638;2023-10-31T09:40:39;3.25;;;0.57;;
81320;SDS011;70785;52.570;5.638;2023-10-31T09:43:05;0.98;;;0.80;;
81320;SDS011;70785;52.570;5.638;2023-10-31T09:45:32;2.83;;;0.40;;
81320;SDS011;70785;52.570;5.638;2023-10-31T09:47:58;1.58;;;0.45;;
81320;SDS011;70785;52.570;5.638;2023-10-31T09:50:26;3.78;;;0.95;;
81320;SDS011;70785;52.570;5.638;2023-10-31T09:52:52;4.30;;;0.75;;
81320;SDS011;70785;52.570;5.638;2023-10-31T09:55:18;1.75;;;0.57;;
81320;SDS011;70785;52.570;5.638;2023-10-31T09:57:45;3.20;;;0.63;;
81320;SDS011;70785;52.570;5.638;2023-10-31T10:00:12;1.48;;;0.57;;
81320;SDS011;70785;52.570;5.638;2023-10-31T10:02:38;2.72;;;0.70;;
81320;SDS011;70785;52.570;5.638;2023-10-31T10:05:04;4.03;;;0.45;;
81320;SDS011;70785;52.570;5.638;2023-10-31T10:07:31;1.38;;;0.50;;
81320;SDS011;70785;52.570;5.638;2023-10-31T10:09:59;2.42;;;0.40;;
81320;SDS011;70785;52.570;5.638;2023-10-31T10:12:26;1.17;;;0.22;;
81320;SDS011;70785;52.570;5.638;2023-10-31T10:14:53;3.25;;;0.80;;
81320;SDS011;70785;52.570;5.638;2023-10-31T10:17:22;1.88;;;0.32;;
81320;SDS011;70785;52.570;5.638;2023-10-31T10:20:08;3.17;;;0.68;;
81320;SDS011;70785;52.570;5.638;2023-10-31T10:22:36;4.50;;;0.60;;
81320;SDS011;70785;52.570;5.638;2023-10-31T10:25:11;4.35;;;0.63;;
81320;SDS011;70785;52.570;5.638;2023-10-31T10:27:41;3.85;;;0.25;;
81320;SDS011;70785;52.570;5.638;2023-10-31T10:30:08;1.45;;;0.32;;
81320;SDS011;70785;52.570;5.638;2023-10-31T10:32:35;1.40;;;0.30;;
81320;SDS011;70785;52.570;5.638;2023-10-31T10:35:01;2.28;;;0.30;;
81320;SDS011;70785;52.570;5.638;2023-10-31T10:37:27;4.53;;;0.40;;
81320;SDS011;70785;52.570;5.638;2023-10-31T10:39:56;1.98;;;0.38;;
81320;SDS011;70785;52.570;5.638;2023-10-31T10:45:01;1.63;;;0.50;;
81320;SDS011;70785;52.570;5.638;2023-10-31T10:47:32;2.38;;;0.50;;
81320;SDS011;70785;52.570;5.638;2023-10-31T10:52:38;1.33;;;0.40;;
81320;SDS011;70785;52.570;5.638;2023-10-31T10:57:41;2.28;;;0.40;;
81320;SDS011;70785;52.570;5.638;2023-10-31T11:00:11;2.60;;;0.20;;
81320;SDS011;70785;52.570;5.638;2023-10-31T11:02:41;2.28;;;0.70;;
81320;SDS011;70785;52.570;5.638;2023-10-31T11:05:08;0.85;;;0.20;;
81320;SDS011;70785;52.570;5.638;2023-10-31T11:07:36;1.17;;;0.22;;
81320;SDS011;70785;52.570;5.638;2023-10-31T11:10:03;2.05;;;0.20;;
81320;SDS011;70785;52.570;5.638;2023-10-31T11:12:30;2.55;;;0.68;;
81320;SDS011;70785;52.570;5.638;2023-10-31T11:14:58;1.58;;;0.28;;
81320;SDS011;70785;52.570;5.638;2023-10-31T11:19:54;1.70;;;0.50;;
81320;SDS011;70785;52.570;5.638;2023-10-31T11:22:21;2.72;;;0.40;;
81320;SDS011;70785;52.570;5.638;2023-10-31T11:24:50;1.33;;;0.38;;
81320;SDS011;70785;52.570;5.638;2023-10-31T11:27:17;2.97;;;0.10;;
81320;SDS011;70785;52.570;5.638;2023-10-31T11:29:44;1.48;;;0.30;;
81320;SDS011;70785;52.570;5.638;2023-10-31T11:32:10;1.63;;;0.15;;
81320;SDS011;70785;52.570;5.638;2023-10-31T11:34:38;13.20;;;1.25;;
81320;SDS011;70785;52.570;5.638;2023-10-31T11:40:38;2.03;;;0.32;;
81320;SDS011;70785;52.570;5.638;2023-10-31T11:42:47;2.28;;;0.20;;
81320;SDS011;70785;52.570;5.638;2023-10-31T11:45:28;8.35;;;0.95;;
81320;SDS011;70785;52.570;5.638;2023-10-31T11:48:03;0.85;;;0.30;;
81320;SDS011;70785;52.570;5.638;2023-10-31T11:50:32;0.50;;;0.50;;
81320;SDS011;70785;52.570;5.638;2023-10-31T11:55:44;2.00;;;0.22;;
81320;SDS011;70785;52.570;5.638;2023-10-31T11:58:19;1.55;;;0.40;;
81320;SDS011;70785;52.570;5.638;2023-10-31T12:00:47;0.63;;;0.17;;
81320;SDS011;70785;52.570;5.638;2023-10-31T12:03:15;2.47;;;0.40;;
81320;SDS011;70785;52.570;5.638;2023-10-31T12:11:05;2.38;;;0.30;;
81320;SDS011;70785;52.570;5.638;2023-10-31T12:13:33;1.98;;;0.55;;
81320;SDS011;70785;52.570;5.638;2023-10-31T12:16:01;1.67;;;0.60;;
81320;SDS011;70785;52.570;5.638;2023-10-31T12:18:27;1.55;;;0.47;;
81320;SDS011;70785;52.570;5.638;2023-10-31T12:20:54;1.65;;;0.10;;
81320;SDS011;70785;52.570;5.638;2023-10-31T12:23:21;0.85;;;0.40;;
81320;SDS011;70785;52.570;5.638;2023-10-31T12:25:48;1.90;;;0.20;;
81320;SDS011;70785;52.570;5.638;2023-10-31T12:28:21;1.38;;;0.10;;
81320;SDS011;70785;52.570;5.638;2023-10-31T12:30:54;2.60;;;0.30;;
81320;SDS011;70785;52.570;5.638;2023-10-31T12:33:22;1.35;;;0.30;;
81320;SDS011;70785;52.570;5.638;2023-10-31T12:35:52;3.72;;;0.10;;
81320;SDS011;70785;52.570;5.638;2023-10-31T12:38:21;2.33;;;0.20;;
81320;SDS011;70785;52.570;5.638;2023-10-31T12:40:48;1.10;;;0.32;;
81320;SDS011;70785;52.570;5.638;2023-10-31T12:43:15;1.13;;;0.10;;
81320;SDS011;70785;52.570;5.638;2023-10-31T12:45:41;0.63;;;0.20;;
81320;SDS011;70785;52.570;5.638;2023-10-31T12:48:08;3.22;;;0.73;;
81320;SDS011;70785;52.570;5.638;2023-10-31T12:50:36;6.32;;;1.20;;
81320;SDS011;70785;52.570;5.638;2023-10-31T12:53:04;3.70;;;0.60;;
81320;SDS011;70785;52.570;5.638;2023-10-31T12:55:36;2.28;;;1.27;;
81320;SDS011;70785;52.570;5.638;2023-10-31T12:58:06;0.57;;;0.20;;
81320;SDS011;70785;52.570;5.638;2023-10-31T13:00:36;2.03;;;0.40;;
81320;SDS011;70785;52.570;5.638;2023-10-31T13:05:29;1.35;;;0.40;;
81320;SDS011;70785;52.570;5.638;2023-10-31T13:07:56;1.35;;;0.50;;
81320;SDS011;70785;52.570;5.638;2023-10-31T13:10:23;0.63;;;0.10;;
81320;SDS011;70785;52.570;5.638;2023-10-31T13:12:50;0.95;;;0.57;;
81320;SDS011;70785;52.570;5.638;2023-10-31T13:15:18;1.38;;;0.20;;
81320;SDS011;70785;52.570;5.638;2023-10-31T13:17:45;0.73;;;0.30;;
81320;SDS011;70785;52.570;5.638;2023-10-31T13:20:14;1.27;;;0.25;;
81320;SDS011;70785;52.570;5.638;2023-10-31T13:22:41;0.65;;;0.13;;
81320;SDS011;70785;52.570;5.638;2023-10-31T13:25:09;1.58;;;0.25;;
81320;SDS011;70785;52.570;5.638;2023-10-31T13:27:37;0.50;;;0.20;;
81320;SDS011;70785;52.570;5.638;2023-10-31T13:30:04;1.77;;;0.57;;
81320;SDS011;70785;52.570;5.638;2023-10-31T13:32:31;1.02;;;0.00;;
81320;SDS011;70785;52.570;5.638;2023-10-31T13:34:57;1.30;;;0.38;;
81320;SDS011;70785;52.570;5.638;2023-10-31T13:37:23;9.15;;;0.90;;
81320;SDS011;70785;52.570;5.638;2023-10-31T13:39:49;0.45;;;0.00;;
81320;SDS011;70785;52.570;5.638;2023-10-31T13:42:16;1.67;;;1.10;;
81320;SDS011;70785;52.570;5.638;2023-10-31T13:44:42;0.82;;;0.30;;
81320;SDS011;70785;52.570;5.638;2023-10-31T13:47:09;8.07;;;0.68;;
81320;SDS011;70785;52.570;5.638;2023-10-31T13:49:36;2.03;;;0.20;;
81320;SDS011;70785;52.570;5.638;2023-10-31T13:52:05;1.40;;;0.30;;
81320;SDS011;70785;52.570;5.638;2023-10-31T13:54:32;2.17;;;0.17;;
81320;SDS011;70785;52.570;5.638;2023-10-31T13:56:58;0.50;;;0.20;;
81320;SDS011;70785;52.570;5.638;2023-10-31T13:59:25;1.58;;;0.20;;
81320;SDS011;70785;52.570;5.638;2023-10-31T14:01:51;0.20;;;0.20;;
81320;SDS011;70785;52.570;5.638;2023-10-31T14:04:18;0.57;;;0.30;;
81320;SDS011;70785;52.570;5.638;2023-10-31T14:06:44;1.15;;;0.20;;
81320;SDS011;70785;52.570;5.638;2023-10-31T14:09:12;0.55;;;0.00;;
81320;SDS011;70785;52.570;5.638;2023-10-31T14:11:38;3.20;;;0.82;;
81320;SDS011;70785;52.570;5.638;2023-10-31T14:14:05;0.90;;;0.22;;
81320;SDS011;70785;52.570;5.638;2023-10-31T14:16:32;1.23;;;0.10;;
81320;SDS011;70785;52.570;5.638;2023-10-31T14:18:59;1.80;;;0.20;;
81320;SDS011;70785;52.570;5.638;2023-10-31T14:21:27;0.77;;;0.20;;
81320;SDS011;70785;52.570;5.638;2023-10-31T14:23:53;1.30;;;0.30;;
81320;SDS011;70785;52.570;5.638;2023-10-31T14:26:20;0.85;;;0.13;;
81320;SDS011;70785;52.570;5.638;2023-10-31T14:28:47;0.63;;;0.10;;
81320;SDS011;70785;52.570;5.638;2023-10-31T14:31:16;0.40;;;0.00;;
81320;SDS011;70785;52.570;5.638;2023-10-31T14:33:42;1.30;;;0.20;;
81320;SDS011;70785;52.570;5.638;2023-10-31T14:36:09;0.08;;;0.00;;
81320;SDS011;70785;52.570;5.638;2023-10-31T14:38:37;0.45;;;0.45;;
81320;SDS011;70785;52.570;5.638;2023-10-31T14:41:03;2.00;;;0.30;;
81320;SDS011;70785;52.570;5.638;2023-10-31T14:43:30;1.15;;;0.20;;
81320;SDS011;70785;52.570;5.638;2023-10-31T14:45:56;1.17;;;0.00;;
81320;SDS011;70785;52.570;5.638;2023-10-31T14:48:23;0.20;;;0.20;;
81320;SDS011;70785;52.570;5.638;2023-10-31T14:50:49;1.20;;;0.10;;
81320;SDS011;70785;52.570;5.638;2023-10-31T14:53:16;0.77;;;0.30;;
81320;SDS011;70785;52.570;5.638;2023-10-31T14:55:42;2.05;;;0.20;;
81320;SDS011;70785;52.570;5.638;2023-10-31T14:58:08;2.00;;;0.10;;
81320;SDS011;70785;52.570;5.638;2023-10-31T15:00:35;0.88;;;0.10;;
81320;SDS011;70785;52.570;5.638;2023-10-31T15:03:01;0.73;;;0.28;;
81320;SDS011;70785;52.570;5.638;2023-10-31T15:05:28;1.40;;;0.28;;
81320;SDS011;70785;52.570;5.638;2023-10-31T15:07:54;3.72;;;0.70;;
81320;SDS011;70785;52.570;5.638;2023-10-31T15:10:21;0.50;;;0.05;;